Portada
METAR-TAF:

METAR-TAF

Aeroports :

Aeroport de Dakhla

Dakhla, Marroc

latitud: 23-43-05N, longitud: 015-55-55W, altitud: 11 m

Observació

L'informe es va fer fa 45 minuts, a les 14:00 UTC
Vent 28 kt del Nord
Temperatura 25°C
Humitat 65%
Pressió 1015 hPa
Visibilitat 10 km o més
sense núvols per sota de 1500 mi sense presència de cumulonimbus.

METAR: GMMH 081400Z 01028KT CAVOK 25/18 Q1015 NOSIG

Hora: 15:45 (14:45 UTC)

Pronòstic

L'informe es va fer fa 3 hores i 45 minuts, a les 11:00 UTC
Pronòstic vàlid del 08 a les 12 UTC al 09 a les 18 UTC
Vent 28 kt del Nord
Visibilitat: 8000 m
Cel ennuvolat a una alçada de 1200 ft

TAF: GMMH 081100Z 0812/0918 36028KT 8000 BKN012

Observacions i pronòstics meteorològics de més de 4000 aeroports (METAR i TAF).

Les estacions disponibles són els punts grocs i vermells al mapa.

Posi el ratolí al punt desitjat per veure el nom de l'estació.

Feu clic per veure les observacions i els pronòstics meteorològics.

Per canviar el mapa: feu clic els botons verds amb una creu de color negre per apropar; al botó verd amb un guió per allunyar la imatge; o en les fletxes verdes per a mapes adjacents.


METAR-TAF: